Vb Alboran — EARA — position and weather

sailwx.info

Track history (hours):
 
Tides and Currents Weather Stations Pressure Air Temp Water Temp Dewpoint Dewpoint Depression Visibility Wind Speed Wind Dir Waves Ship Positions

Vb Alboran

Last reported at 2017-Mar-28 19:33 UTC. Time now 2017-Mar-28 19:33 UTC.
Position N 28°08' W 015°25'.

Length 28 m; draft 6 m.

Type: Tug. MMSI: 224550000.

Date/timePositionNaut miles runAvg speedWind from/ knotsBaromVisibWave heightAir tempDewpointWater temp
2017-Mar-28 19:33N 28°08' W 015°25'1 1.0
2017-Mar-28 18:33N 28°09' W 015°25'1 1.0
2017-Mar-28 17:33N 28°08' W 015°25'0 0.0
2017-Mar-28 16:33N 28°08' W 015°25'0 0.0
2017-Mar-28 15:33N 28°08' W 015°25'1 0.8
2017-Mar-28 14:33N 28°08' W 015°25'1 0.8
2017-Mar-28 13:33N 28°08' W 015°25'0 0.2
2017-Mar-28 12:33N 28°08' W 015°25'0 0.2
2017-Mar-28 11:33N 28°08' W 015°25'0 0.0
2017-Mar-28 10:33N 28°08' W 015°25'0 0.0
2017-Mar-28 09:33N 28°08' W 015°25'2 1.5
2017-Mar-28 08:33N 28°09' W 015°24'2 1.5
2017-Mar-28 07:33N 28°08' W 015°25'0 0.0
2017-Mar-28 06:33N 28°08' W 015°25'0 0.0
2017-Mar-28 05:33N 28°08' W 015°25'0 0.0
2017-Mar-28 04:33N 28°08' W 015°25'0 0.0
2017-Mar-28 03:33N 28°08' W 015°25'0 0.0
2017-Mar-28 02:33N 28°08' W 015°25'0 0.0
2017-Mar-28 01:33N 28°08' W 015°25'0 0.0
2017-Mar-28 00:33N 28°08' W 015°25'0 0.0
2017-Mar-27 23:33N 28°08' W 015°25'0 0.0
2017-Mar-27 22:33N 28°08' W 015°25'0 0.0
2017-Mar-27 21:33N 28°08' W 015°25'0 0.0
2017-Mar-27 20:33N 28°08' W 015°25'0 0.0
2017-Mar-27 19:33N 28°08' W 015°25'0 0.0
2017-Mar-27 18:33N 28°08' W 015°25'1 0.7
2017-Mar-27 17:33N 28°08' W 015°25'1 0.7
2017-Mar-27 16:33N 28°08' W 015°25'0 0.0
2017-Mar-27 15:33N 28°08' W 015°25'0 0.0
2017-Mar-27 14:33N 28°08' W 015°25'0 0.0
2017-Mar-27 13:33N 28°08' W 015°25'1 0.9
2017-Mar-27 12:33N 28°08' W 015°25'1 0.9
2017-Mar-27 11:33N 28°08' W 015°25'0 0.0
2017-Mar-27 10:33N 28°08' W 015°25'2 1.5
2017-Mar-27 09:33N 28°07' W 015°24'2 1.8
2017-Mar-27 08:33N 28°09' W 015°25'  
2017-Mar-23 13:16N 28°09' W 015°25'1 1.5
2017-Mar-23 12:33N 28°08' W 015°24'1 1.0
2017-Mar-23 11:33N 28°09' W 015°25'1 0.7
2017-Mar-23 10:33N 28°08' W 015°25'0 0.0
2017-Mar-23 09:33N 28°08' W 015°25'0 0.0
2017-Mar-23 08:33N 28°08' W 015°25'0 0.0
2017-Mar-23 07:33N 28°08' W 015°25'0 0.0
2017-Mar-23 06:33N 28°08' W 015°25'0 0.0
2017-Mar-23 05:33N 28°08' W 015°25'0 0.0
2017-Mar-23 04:33N 28°08' W 015°25'0 0.0
2017-Mar-23 03:33N 28°08' W 015°25'0 0.0
2017-Mar-23 02:33N 28°08' W 015°25'0 0.0
2017-Mar-23 01:33N 28°08' W 015°25'0 0.0
2017-Mar-23 00:33N 28°08' W 015°25'0 0.0
2017-Mar-22 23:33N 28°08' W 015°25'0 0.0
2017-Mar-22 22:33N 28°08' W 015°25'0 0.0
2017-Mar-22 21:33N 28°08' W 015°25'0 0.5
2017-Mar-22 20:33N 28°08' W 015°25'1 1.1
2017-Mar-22 19:33N 28°07' W 015°24'1 1.1
2017-Mar-22 18:33N 28°08' W 015°25'0 0.5
2017-Mar-22 17:33N 28°08' W 015°25'0 0.4
2017-Mar-22 16:33N 28°09' W 015°25'0 0.4
2017-Mar-22 15:33N 28°08' W 015°25'0 0.0
2017-Mar-22 14:33N 28°08' W 015°25'0 0.0
2017-Mar-22 13:33N 28°08' W 015°25'0 0.0
2017-Mar-22 12:33N 28°08' W 015°25'0 0.0
2017-Mar-22 11:33N 28°08' W 015°25'0 0.0
2017-Mar-22 10:33N 28°08' W 015°25'0 0.0
2017-Mar-22 09:33N 28°08' W 015°25'0 0.1
2017-Mar-22 08:33N 28°08' W 015°25'0 0.5
2017-Mar-22 07:33N 28°09' W 015°25'0 0.5
2017-Mar-22 06:33N 28°09' W 015°25'0 0.0
2017-Mar-22 05:33N 28°09' W 015°25'0 0.0
2017-Mar-22 04:33N 28°09' W 015°25'0 0.0
2017-Mar-22 03:33N 28°08' W 015°25'0 0.0
2017-Mar-22 02:33N 28°08' W 015°25'0 0.0
2017-Mar-22 01:33N 28°09' W 015°25'0 0.0
2017-Mar-22 00:33N 28°09' W 015°25'1 0.8
2017-Mar-21 23:33N 28°08' W 015°25'10 9.6
2017-Mar-21 22:33N 27°60' W 015°20'9 8.4
2017-Mar-21 21:32N 27°51' W 015°22'1 0.5
2017-Mar-21 19:13N 27°51' W 015°23'711.0
2017-Mar-21 18:33N 27°58' W 015°21'1110.8
2017-Mar-21 17:33N 28°08' W 015°25'1 0.7
2017-Mar-21 16:33N 28°08' W 015°25'0 0.0
2017-Mar-21 15:33N 28°08' W 015°25'0 0.0
2017-Mar-21 14:33N 28°08' W 015°25'0 0.0
2017-Mar-21 13:33N 28°08' W 015°25'0 0.0
2017-Mar-21 12:33N 28°08' W 015°25'1 1.4
2017-Mar-21 11:33N 28°09' W 015°24'1 1.4
2017-Mar-21 10:33N 28°08' W 015°25'  
2017-Mar-19 00:10N 28°08' W 015°25'  
Track history (hours):
 
Tides and Currents Weather Stations Pressure Air Temp Water Temp Dewpoint Dewpoint Depression Visibility Wind Speed Wind Dir Waves Ship Positions

Vb Alboran

Last reported at 2017-Mar-28 19:33 UTC. Time now 2017-Mar-28 19:33 UTC.
Position N 28°08' W 015°25'.

Length 28 m; draft 6 m.

Type: Tug. MMSI: 224550000.

Date/timePositionNaut miles runAvg speedWind from/ knotsBaromVisibWave heightAir tempDewpointWater temp
2017-Mar-28 19:33N 28°08' W 015°25'1 1.0
2017-Mar-28 18:33N 28°09' W 015°25'1 1.0
2017-Mar-28 17:33N 28°08' W 015°25'0 0.0
2017-Mar-28 16:33N 28°08' W 015°25'0 0.0
2017-Mar-28 15:33N 28°08' W 015°25'1 0.8
2017-Mar-28 14:33N 28°08' W 015°25'1 0.8
2017-Mar-28 13:33N 28°08' W 015°25'0 0.2
2017-Mar-28 12:33N 28°08' W 015°25'0 0.2
2017-Mar-28 11:33N 28°08' W 015°25'0 0.0
2017-Mar-28 10:33N 28°08' W 015°25'0 0.0
2017-Mar-28 09:33N 28°08' W 015°25'2 1.5
2017-Mar-28 08:33N 28°09' W 015°24'2 1.5
2017-Mar-28 07:33N 28°08' W 015°25'0 0.0
2017-Mar-28 06:33N 28°08' W 015°25'0 0.0
2017-Mar-28 05:33N 28°08' W 015°25'0 0.0
2017-Mar-28 04:33N 28°08' W 015°25'0 0.0
2017-Mar-28 03:33N 28°08' W 015°25'0 0.0
2017-Mar-28 02:33N 28°08' W 015°25'0 0.0
2017-Mar-28 01:33N 28°08' W 015°25'0 0.0
2017-Mar-28 00:33N 28°08' W 015°25'0 0.0
2017-Mar-27 23:33N 28°08' W 015°25'0 0.0
2017-Mar-27 22:33N 28°08' W 015°25'0 0.0
2017-Mar-27 21:33N 28°08' W 015°25'0 0.0
2017-Mar-27 20:33N 28°08' W 015°25'0 0.0
2017-Mar-27 19:33N 28°08' W 015°25'0 0.0
2017-Mar-27 18:33N 28°08' W 015°25'1 0.7
2017-Mar-27 17:33N 28°08' W 015°25'1 0.7
2017-Mar-27 16:33N 28°08' W 015°25'0 0.0
2017-Mar-27 15:33N 28°08' W 015°25'0 0.0
2017-Mar-27 14:33N 28°08' W 015°25'0 0.0
2017-Mar-27 13:33N 28°08' W 015°25'1 0.9
2017-Mar-27 12:33N 28°08' W 015°25'1 0.9
2017-Mar-27 11:33N 28°08' W 015°25'0 0.0
2017-Mar-27 10:33N 28°08' W 015°25'2 1.5
2017-Mar-27 09:33N 28°07' W 015°24'2 1.8
2017-Mar-27 08:33N 28°09' W 015°25'  
2017-Mar-23 13:16N 28°09' W 015°25'1 1.5
2017-Mar-23 12:33N 28°08' W 015°24'1 1.0
2017-Mar-23 11:33N 28°09' W 015°25'1 0.7
2017-Mar-23 10:33N 28°08' W 015°25'0 0.0
2017-Mar-23 09:33N 28°08' W 015°25'0 0.0
2017-Mar-23 08:33N 28°08' W 015°25'0 0.0
2017-Mar-23 07:33N 28°08' W 015°25'0 0.0
2017-Mar-23 06:33N 28°08' W 015°25'0 0.0
2017-Mar-23 05:33N 28°08' W 015°25'0 0.0
2017-Mar-23 04:33N 28°08' W 015°25'0 0.0
2017-Mar-23 03:33N 28°08' W 015°25'0 0.0
2017-Mar-23 02:33N 28°08' W 015°25'0 0.0
2017-Mar-23 01:33N 28°08' W 015°25'0 0.0
2017-Mar-23 00:33N 28°08' W 015°25'0 0.0
2017-Mar-22 23:33N 28°08' W 015°25'0 0.0
2017-Mar-22 22:33N 28°08' W 015°25'0 0.0
2017-Mar-22 21:33N 28°08' W 015°25'0 0.5
2017-Mar-22 20:33N 28°08' W 015°25'1 1.1
2017-Mar-22 19:33N 28°07' W 015°24'1 1.1
2017-Mar-22 18:33N 28°08' W 015°25'0 0.5
2017-Mar-22 17:33N 28°08' W 015°25'0 0.4
2017-Mar-22 16:33N 28°09' W 015°25'0 0.4
2017-Mar-22 15:33N 28°08' W 015°25'0 0.0
2017-Mar-22 14:33N 28°08' W 015°25'0 0.0
2017-Mar-22 13:33N 28°08' W 015°25'0 0.0
2017-Mar-22 12:33N 28°08' W 015°25'0 0.0
2017-Mar-22 11:33N 28°08' W 015°25'0 0.0
2017-Mar-22 10:33N 28°08' W 015°25'0 0.0
2017-Mar-22 09:33N 28°08' W 015°25'0 0.1
2017-Mar-22 08:33N 28°08' W 015°25'0 0.5
2017-Mar-22 07:33N 28°09' W 015°25'0 0.5
2017-Mar-22 06:33N 28°09' W 015°25'0 0.0
2017-Mar-22 05:33N 28°09' W 015°25'0 0.0
2017-Mar-22 04:33N 28°09' W 015°25'0 0.0
2017-Mar-22 03:33N 28°08' W 015°25'0 0.0
2017-Mar-22 02:33N 28°08' W 015°25'0 0.0
2017-Mar-22 01:33N 28°09' W 015°25'0 0.0
2017-Mar-22 00:33N 28°09' W 015°25'1 0.8
2017-Mar-21 23:33N 28°08' W 015°25'10 9.6
2017-Mar-21 22:33N 27°60' W 015°20'9 8.4
2017-Mar-21 21:32N 27°51' W 015°22'1 0.5
2017-Mar-21 19:13N 27°51' W 015°23'711.0
2017-Mar-21 18:33N 27°58' W 015°21'1110.8
2017-Mar-21 17:33N 28°08' W 015°25'1 0.7
2017-Mar-21 16:33N 28°08' W 015°25'0 0.0
2017-Mar-21 15:33N 28°08' W 015°25'0 0.0
2017-Mar-21 14:33N 28°08' W 015°25'0 0.0
2017-Mar-21 13:33N 28°08' W 015°25'0 0.0
2017-Mar-21 12:33N 28°08' W 015°25'1 1.4
2017-Mar-21 11:33N 28°09' W 015°24'1 1.4
2017-Mar-21 10:33N 28°08' W 015°25'  
2017-Mar-19 00:10N 28°08' W 015°25'  

Dump ship's entire track history